This is the latest recevied weather packets stored in our database for station/object VK6DUG. If no packets are shown the sender has not sent any weather packets the latest 10 day(s).
| Time | Temp. | Humidity | Pressure | Rain* | Wind** | Luminosity | Snow |
|---|---|---|---|---|---|---|---|
| 1777620623 | 16.11° C | 48% | 1025.8 hPa | 0 mm | - | 197 W/m² | - |
| 1777620019 | 16.11° C | 48% | 1025.7 hPa | 0 mm | - | 318 W/m² | - |
| 1777619433 | 16.11° C | 47% | 1025.7 hPa | 0 mm | - | 361 W/m² | - |
| 1777618829 | 16.11° C | 50% | 1025.7 hPa | 0 mm | - | 259 W/m² | - |
| 1777618223 | 16.11° C | 50% | 1025.6 hPa | 0 mm | - | 451 W/m² | - |
| 1777617619 | 15° C | 53% | 1025.5 hPa | 0 mm | - | 353 W/m² | - |
| 1777617016 | 16.67° C | 50% | 1025.4 hPa | 0 mm | - | 209 W/m² | - |
| 1777616433 | 16.67° C | 48% | 1025.3 hPa | 0 mm | - | 388 W/m² | - |
| 1777615828 | 16.11° C | 50% | 1025.3 hPa | 0 mm | - | 441 W/m² | - |
| 1777615223 | 16.11° C | 50% | 1025.4 hPa | 0 mm | - | 514 W/m² | - |
| 1777614617 | 16.11° C | 50% | 1025.4 hPa | 0 mm | - | 596 W/m² | - |
| 1777614035 | 16.11° C | 48% | 1025.5 hPa | 0 mm | - | 528 W/m² | - |
| 1777613430 | 16.11° C | 47% | 1025.4 hPa | 0 mm | - | 568 W/m² | - |
| 1777612825 | 16.11° C | 49% | 1025.4 hPa | 0 mm | - | 575 W/m² | - |
| 1777612222 | 16.11° C | 48% | 1025.5 hPa | 0 mm | - | 565 W/m² | - |
| 1777611617 | 16.11° C | 49% | 1025.6 hPa | 0 mm | - | 588 W/m² | - |
| 1777611032 | 16.11° C | 49% | 1025.5 hPa | 0 mm | - | 577 W/m² | - |
| 1777610428 | 15.56° C | 49% | 1025.8 hPa | 0 mm | - | 610 W/m² | - |
| 1777609825 | 15.56° C | 52% | 1025.9 hPa | 0 mm | - | 579 W/m² | - |
| 1777609220 | 15.56° C | 52% | 1026.2 hPa | 0 mm | - | 504 W/m² | - |
| 1777608617 | 15.56° C | 55% | 1026.2 hPa | 0 mm | - | 550 W/m² | - |
| 1777608032 | 15° C | 57% | 1026.3 hPa | 0 mm | - | 633 W/m² | - |
| 1777607428 | 15.56° C | 57% | 1026.4 hPa | 0 mm | - | 230 W/m² | - |
| 1777606824 | 15.56° C | 57% | 1026.4 hPa | 0 mm | - | 283 W/m² | - |
| 1777606222 | 15° C | 57% | 1026.4 hPa | 0 mm | - | 469 W/m² | - |
* Rain latest hour (hover to see other rain measurements)
** Current wind speed in m/s (hover to see current wind gust speed)